createdAt,value
2022-12-26T00:00:14.223Z,58.78
2022-12-26T00:01:11.379Z,58.92
2022-12-26T00:01:49.006Z,60.20
2022-12-26T00:02:23.218Z,60.88
2022-12-26T00:02:56.893Z,61.73
2022-12-26T00:03:31.008Z,62.40
2022-12-26T00:04:05.130Z,63.02
2022-12-26T00:04:51.462Z,63.80
2022-12-26T00:05:26.715Z,64.47
2022-12-26T00:06:00.325Z,64.03
2022-12-26T00:06:34.598Z,63.53
2022-12-26T00:07:08.170Z,62.93
2022-12-26T00:07:41.736Z,62.19
2022-12-26T00:08:14.969Z,61.58
2022-12-26T00:08:48.772Z,61.09
2022-12-26T00:09:22.248Z,60.73
2022-12-26T00:09:55.802Z,60.26
2022-12-26T00:10:29.076Z,59.96
2022-12-26T00:11:02.543Z,59.76
2022-12-26T00:11:36.990Z,59.44
2022-12-26T00:12:10.499Z,59.18
2022-12-26T00:12:43.997Z,58.69
2022-12-26T00:13:38.614Z,58.68
2022-12-26T00:14:14.086Z,58.62
2022-12-26T00:14:47.515Z,59.51
2022-12-26T00:15:21.021Z,60.42
2022-12-26T00:15:54.341Z,61.09
2022-12-26T00:16:28.436Z,61.82
2022-12-26T00:17:01.828Z,62.57
2022-12-26T00:17:35.594Z,63.21
2022-12-26T00:18:09.094Z,63.88
2022-12-26T00:18:43.489Z,64.19
2022-12-26T00:19:16.762Z,64.49
2022-12-26T00:19:50.138Z,64.31
2022-12-26T00:20:23.645Z,63.94
2022-12-26T00:20:57.104Z,63.49
2022-12-26T00:21:31.207Z,63.00
2022-12-26T00:22:05.579Z,62.60
2022-12-26T00:22:38.748Z,62.21
2022-12-26T00:23:12.204Z,61.93
2022-12-26T00:23:46.677Z,61.67
2022-12-26T00:24:20.298Z,61.45
2022-12-26T00:24:53.622Z,61.43
2022-12-26T00:25:27.283Z,61.02
2022-12-26T00:26:05.506Z,60.53
2022-12-26T00:26:39.678Z,60.14
2022-12-26T00:27:13.107Z,59.66
2022-12-26T00:27:46.347Z,59.30
2022-12-26T00:28:19.877Z,59.12
2022-12-26T00:28:55.155Z,59.16
2022-12-26T00:29:28.673Z,59.60
2022-12-26T00:30:02.134Z,59.76
2022-12-26T00:30:38.635Z,60.27
2022-12-26T00:31:15.728Z,60.90
2022-12-26T00:31:50.170Z,61.65
2022-12-26T00:32:23.691Z,62.41
2022-12-26T00:32:57.099Z,63.25
2022-12-26T00:33:30.491Z,63.81
2022-12-26T00:34:03.962Z,64.10
2022-12-26T00:34:37.488Z,64.21
2022-12-26T00:35:10.993Z,63.92
2022-12-26T00:35:44.395Z,63.60
2022-12-26T00:36:24.281Z,63.39
2022-12-26T00:36:57.752Z,62.94
2022-12-26T00:37:31.082Z,62.45
2022-12-26T00:38:04.452Z,62.14
2022-12-26T00:38:40.112Z,61.75
2022-12-26T00:39:13.593Z,61.29
2022-12-26T00:39:47.065Z,60.54
2022-12-26T00:40:20.456Z,59.96
2022-12-26T00:40:53.835Z,59.56
2022-12-26T00:41:28.017Z,59.45
2022-12-26T00:42:01.311Z,59.39
2022-12-26T00:42:34.933Z,59.19
2022-12-26T00:43:08.457Z,59.24
2022-12-26T00:43:41.876Z,59.55
2022-12-26T00:44:15.189Z,60.29
2022-12-26T00:44:48.698Z,60.86
2022-12-26T00:45:22.349Z,61.66
2022-12-26T00:45:55.815Z,62.32
2022-12-26T00:46:29.499Z,62.70
2022-12-26T00:47:03.261Z,63.61
2022-12-26T00:47:36.846Z,64.10
2022-12-26T00:48:10.376Z,64.31
2022-12-26T00:48:44.350Z,64.14
2022-12-26T00:49:17.555Z,63.70
2022-12-26T00:50:13.028Z,63.24
2022-12-26T00:50:44.006Z,62.57
2022-12-26T00:51:17.895Z,62.21
2022-12-26T00:51:51.251Z,61.78
2022-12-26T00:52:24.554Z,61.70
2022-12-26T00:52:58.027Z,61.50
2022-12-26T00:53:31.593Z,61.30
2022-12-26T00:54:05.005Z,60.94
2022-12-26T00:54:38.765Z,60.79
2022-12-26T00:55:12.293Z,60.37
2022-12-26T00:55:45.773Z,60.23
2022-12-26T00:56:19.199Z,60.15
2022-12-26T00:56:52.603Z,60.19
2022-12-26T00:57:26.025Z,60.43
2022-12-26T00:57:59.466Z,60.40
2022-12-26T00:58:33.121Z,60.41
2022-12-26T00:59:06.544Z,60.13
2022-12-26T00:59:40.109Z,60.02
2022-12-26T01:00:14.173Z,60.02
2022-12-26T01:00:48.378Z,59.83
2022-12-26T01:01:23.549Z,59.73
2022-12-26T01:01:57.402Z,59.61
2022-12-26T01:02:40.092Z,59.50
2022-12-26T01:03:14.877Z,59.21
2022-12-26T01:03:49.434Z,59.01
2022-12-26T01:04:23.014Z,59.14
2022-12-26T01:04:56.525Z,59.47
2022-12-26T01:05:30.270Z,60.02
2022-12-26T01:06:05.235Z,60.72
2022-12-26T01:06:38.608Z,61.49
2022-12-26T01:07:11.903Z,62.33
2022-12-26T01:08:22.020Z,63.14
2022-12-26T01:08:39.074Z,63.77
2022-12-26T01:09:14.064Z,64.38
2022-12-26T01:09:47.249Z,64.29
2022-12-26T01:10:20.712Z,64.09
2022-12-26T01:10:54.217Z,63.64
2022-12-26T01:11:43.223Z,63.21
2022-12-26T01:12:16.756Z,62.93
2022-12-26T01:12:50.041Z,62.32
2022-12-26T01:13:23.505Z,61.88
2022-12-26T01:13:56.833Z,61.49
2022-12-26T01:14:30.361Z,61.36
2022-12-26T01:15:04.761Z,61.42
2022-12-26T01:15:38.499Z,61.51
2022-12-26T01:16:11.968Z,61.52
2022-12-26T01:16:47.486Z,61.42
2022-12-26T01:17:20.973Z,61.38
2022-12-26T01:17:54.412Z,61.46
2022-12-26T01:18:28.227Z,61.67
2022-12-26T01:19:01.907Z,61.71
2022-12-26T01:19:35.531Z,61.88
2022-12-26T01:20:09.708Z,62.00
2022-12-26T01:20:43.079Z,61.68
2022-12-26T01:21:16.485Z,61.51
2022-12-26T01:21:50.061Z,61.29
2022-12-26T01:22:24.556Z,60.97
2022-12-26T01:22:57.787Z,60.75
2022-12-26T01:23:31.371Z,60.66
2022-12-26T01:24:05.786Z,60.59
2022-12-26T01:24:39.390Z,60.63
2022-12-26T01:25:12.895Z,60.71
2022-12-26T01:26:16.404Z,60.75
2022-12-26T01:26:39.684Z,60.82
2022-12-26T01:27:13.324Z,60.31
2022-12-26T01:27:46.728Z,60.10
2022-12-26T01:28:20.436Z,60.09
2022-12-26T01:28:54.101Z,60.03
2022-12-26T01:29:27.331Z,59.92
2022-12-26T01:30:00.768Z,59.89
2022-12-26T01:30:34.349Z,59.76
2022-12-26T01:31:07.883Z,59.79
2022-12-26T01:31:41.617Z,59.88
2022-12-26T01:32:15.570Z,60.20
2022-12-26T01:32:48.771Z,59.94
2022-12-26T01:33:22.082Z,59.51
2022-12-26T01:33:55.508Z,58.99
2022-12-26T01:34:28.969Z,58.44
2022-12-26T01:35:02.319Z,58.25
2022-12-26T01:35:35.617Z,58.35
2022-12-26T01:36:09.364Z,58.71
2022-12-26T01:36:42.868Z,59.51
2022-12-26T01:37:17.282Z,59.81
2022-12-26T01:37:50.768Z,60.42
2022-12-26T01:38:25.254Z,61.08
2022-12-26T01:38:58.900Z,61.84
2022-12-26T01:39:32.542Z,62.56
2022-12-26T01:40:06.661Z,63.47
2022-12-26T01:40:43.694Z,64.08
2022-12-26T01:41:17.532Z,63.96
2022-12-26T01:41:51.189Z,63.40
2022-12-26T01:42:26.675Z,63.03
2022-12-26T01:43:00.132Z,62.82
2022-12-26T01:43:50.915Z,62.60
2022-12-26T01:44:55.428Z,62.96
2022-12-26T01:45:31.407Z,61.97
2022-12-26T01:46:04.899Z,61.16
2022-12-26T01:46:39.959Z,60.66
2022-12-26T01:47:14.684Z,60.12
2022-12-26T01:47:51.979Z,59.68
2022-12-26T01:48:34.694Z,59.23
2022-12-26T01:49:26.650Z,58.53
2022-12-26T01:50:00.177Z,58.11
2022-12-26T01:50:33.512Z,59.02
2022-12-26T01:51:07.858Z,59.57
2022-12-26T01:51:46.576Z,60.20
2022-12-26T01:52:49.603Z,60.89
2022-12-26T01:53:30.916Z,61.99
2022-12-26T01:54:41.335Z,62.56
2022-12-26T01:55:03.623Z,64.14
2022-12-26T01:55:38.192Z,64.21
2022-12-26T01:56:16.187Z,64.19
2022-12-26T01:56:49.760Z,64.33
2022-12-26T01:57:28.252Z,64.15
2022-12-26T01:58:10.740Z,63.89
2022-12-26T01:59:06.544Z,63.82
2022-12-26T01:59:41.947Z,63.89
2022-12-26T02:00:16.001Z,63.47
2022-12-26T02:00:49.757Z,63.08
2022-12-26T02:01:30.210Z,62.70
2022-12-26T02:02:04.339Z,62.54
2022-12-26T02:02:57.869Z,62.24
2022-12-26T02:03:50.951Z,61.95
2022-12-26T02:04:53.630Z,61.80
2022-12-26T02:05:35.728Z,61.92
2022-12-26T02:06:10.670Z,62.25
2022-12-26T02:06:44.239Z,62.33
2022-12-26T02:07:17.908Z,62.43
2022-12-26T02:07:51.346Z,62.37
2022-12-26T02:08:29.508Z,62.07
2022-12-26T02:09:03.323Z,61.95
2022-12-26T02:09:37.611Z,61.40
2022-12-26T02:10:20.475Z,60.94
2022-12-26T02:11:04.077Z,60.79
2022-12-26T02:11:50.349Z,60.87
2022-12-26T02:12:45.026Z,60.78
2022-12-26T02:13:20.232Z,59.75
2022-12-26T02:13:54.191Z,59.34
2022-12-26T02:14:28.193Z,59.00
2022-12-26T02:15:03.163Z,59.03
2022-12-26T02:15:36.752Z,59.11
2022-12-26T02:16:15.222Z,59.60
2022-12-26T02:16:48.644Z,60.19
2022-12-26T02:17:22.243Z,60.87
2022-12-26T02:17:55.657Z,61.48
2022-12-26T02:18:28.919Z,62.20
2022-12-26T02:19:02.898Z,62.79
2022-12-26T02:20:07.023Z,63.51
2022-12-26T02:21:12.242Z,64.31
2022-12-26T02:21:55.490Z,64.42
2022-12-26T02:22:54.847Z,63.31
2022-12-26T02:23:37.157Z,62.70
2022-12-26T02:24:51.877Z,62.15
2022-12-26T02:25:25.143Z,62.24
2022-12-26T02:26:26.477Z,61.37
2022-12-26T02:27:45.283Z,61.56
2022-12-26T02:28:40.284Z,61.24
2022-12-26T02:29:51.666Z,60.65
2022-12-26T02:30:28.818Z,59.78
2022-12-26T02:31:10.198Z,59.66
2022-12-26T02:31:53.315Z,59.91
2022-12-26T02:32:51.743Z,59.69
2022-12-26T02:33:55.166Z,59.90
2022-12-26T02:34:35.708Z,59.91
2022-12-26T02:35:46.662Z,59.58
2022-12-26T02:37:01.824Z,59.31
2022-12-26T02:37:53.530Z,58.65
2022-12-26T02:38:47.227Z,59.20
2022-12-26T02:39:50.609Z,59.97
2022-12-26T02:40:53.489Z,61.11
2022-12-26T02:42:13.218Z,62.14
2022-12-26T02:43:03.786Z,62.97
2022-12-26T02:44:01.072Z,64.47
2022-12-26T02:45:07.810Z,64.68
2022-12-26T02:46:27.805Z,64.42
2022-12-26T02:47:14.371Z,64.12
2022-12-26T02:48:09.222Z,63.94
2022-12-26T02:49:13.816Z,64.34
2022-12-26T02:50:24.053Z,64.27
2022-12-26T02:51:23.897Z,63.54
2022-12-26T02:52:18.815Z,63.32
2022-12-26T02:53:28.986Z,63.35
2022-12-26T02:54:28.404Z,63.70
2022-12-26T02:55:36.355Z,63.83
2022-12-26T02:56:54.428Z,63.56
2022-12-26T02:58:00.573Z,63.26
2022-12-26T02:59:10.508Z,62.59
2022-12-26T03:00:36.784Z,61.86
2022-12-26T03:01:44.269Z,62.05
2022-12-26T03:02:43.598Z,62.60
2022-12-26T03:03:40.513Z,62.24
2022-12-26T03:04:36.376Z,62.13
2022-12-26T03:05:44.432Z,62.24
2022-12-26T03:06:46.977Z,61.15
2022-12-26T03:07:44.842Z,60.04
2022-12-26T03:09:02.970Z,59.70
2022-12-26T03:09:58.711Z,61.11
2022-12-26T03:10:56.655Z,60.14
2022-12-26T03:11:55.873Z,59.11
2022-12-26T03:12:56.878Z,58.04
2022-12-26T03:13:37.247Z,57.92
2022-12-26T03:14:18.349Z,59.08
2022-12-26T03:15:02.891Z,59.70
2022-12-26T03:16:22.793Z,60.42
2022-12-26T03:17:22.604Z,60.81
2022-12-26T03:18:04.464Z,61.62
2022-12-26T03:18:59.235Z,63.45
2022-12-26T03:19:37.586Z,64.54
2022-12-26T03:20:34.956Z,64.95
2022-12-26T03:21:10.511Z,65.10
2022-12-26T03:21:46.122Z,64.46
2022-12-26T03:22:31.993Z,63.88
2022-12-26T03:23:14.434Z,63.20
2022-12-26T03:23:50.499Z,62.78
2022-12-26T03:24:25.588Z,62.18
2022-12-26T03:25:21.300Z,61.54
2022-12-26T03:26:25.418Z,61.71
2022-12-26T03:26:58.953Z,60.90
2022-12-26T03:27:34.415Z,59.84
2022-12-26T03:28:08.563Z,59.52
2022-12-26T03:28:44.012Z,59.44
2022-12-26T03:29:40.021Z,59.15
2022-12-26T03:30:45.465Z,58.93
2022-12-26T03:31:19.333Z,58.94
2022-12-26T03:31:52.720Z,60.24
2022-12-26T03:32:26.131Z,61.08
2022-12-26T03:33:00.099Z,61.81
2022-12-26T03:33:56.110Z,62.12
2022-12-26T03:34:29.957Z,63.75
2022-12-26T03:35:13.249Z,64.31
2022-12-26T03:35:46.690Z,64.34
2022-12-26T03:36:39.820Z,64.31
2022-12-26T03:37:19.046Z,63.84
2022-12-26T03:38:02.315Z,63.49
2022-12-26T03:38:56.193Z,63.25
2022-12-26T03:40:16.080Z,62.75
2022-12-26T03:41:41.984Z,62.01
2022-12-26T03:42:53.279Z,61.71
2022-12-26T03:44:19.948Z,61.65
2022-12-26T03:45:22.307Z,61.55
2022-12-26T03:46:23.348Z,61.03
2022-12-26T03:47:24.526Z,60.86
2022-12-26T03:48:38.992Z,60.61
2022-12-26T03:49:55.774Z,61.29
2022-12-26T03:50:54.662Z,61.01
2022-12-26T03:51:54.513Z,60.54
2022-12-26T03:52:52.789Z,60.57
2022-12-26T03:53:53.256Z,60.78
2022-12-26T03:55:23.564Z,60.74
2022-12-26T03:56:32.920Z,60.70
2022-12-26T03:57:30.013Z,60.52
2022-12-26T03:58:36.589Z,60.30
2022-12-26T03:59:33.875Z,60.47
2022-12-26T04:00:29.992Z,60.84
2022-12-26T04:01:29.292Z,60.73
2022-12-26T04:02:26.076Z,60.13
2022-12-26T04:03:25.194Z,58.91
2022-12-26T04:04:20.293Z,57.79
2022-12-26T04:05:15.630Z,57.91
2022-12-26T04:06:11.725Z,58.85
2022-12-26T04:07:12.820Z,59.22
2022-12-26T04:08:18.206Z,59.84
2022-12-26T04:09:18.390Z,60.96
2022-12-26T04:10:36.460Z,62.42
2022-12-26T04:11:35.490Z,63.99
2022-12-26T04:12:35.404Z,64.30
2022-12-26T04:13:38.096Z,63.70
2022-12-26T04:14:52.151Z,62.99
2022-12-26T04:16:02.571Z,62.12
2022-12-26T04:17:27.219Z,62.33
2022-12-26T04:18:32.231Z,62.77
2022-12-26T04:19:50.951Z,61.18
2022-12-26T04:20:43.969Z,59.08
2022-12-26T04:21:44.903Z,58.74
2022-12-26T04:22:53.994Z,58.21
2022-12-26T04:24:01.686Z,58.37
2022-12-26T04:25:00.933Z,58.64
2022-12-26T04:25:58.843Z,60.17
2022-12-26T04:27:02.793Z,62.19
2022-12-26T04:27:54.810Z,63.04
2022-12-26T04:28:46.907Z,64.29
2022-12-26T04:29:39.218Z,64.19
2022-12-26T04:30:31.036Z,63.74
2022-12-26T04:31:55.864Z,62.24
2022-12-26T04:33:07.362Z,61.28
2022-12-26T04:34:11.811Z,60.67
2022-12-26T04:35:39.714Z,59.90
2022-12-26T04:36:43.384Z,59.89
2022-12-26T04:37:43.318Z,59.71
2022-12-26T04:38:41.034Z,59.79
2022-12-26T04:39:37.157Z,59.93
2022-12-26T04:40:37.001Z,60.11
2022-12-26T04:41:31.407Z,60.36
2022-12-26T04:42:25.228Z,60.11
2022-12-26T04:43:49.519Z,60.04
2022-12-26T04:44:13.687Z,60.29
2022-12-26T04:44:50.181Z,60.40
2022-12-26T04:45:24.235Z,60.49
2022-12-26T04:45:58.046Z,60.64
2022-12-26T04:46:33.200Z,60.61
2022-12-26T04:47:07.424Z,60.55
2022-12-26T04:48:01.208Z,60.53
2022-12-26T04:49:00.965Z,60.35
2022-12-26T04:50:04.899Z,60.14
2022-12-26T04:50:50.808Z,60.09
2022-12-26T04:51:24.599Z,60.29
2022-12-26T04:52:00.268Z,60.06
2022-12-26T04:52:52.157Z,59.97
2022-12-26T04:53:25.512Z,60.18
2022-12-26T04:53:58.762Z,60.02
2022-12-26T04:54:32.640Z,59.85
2022-12-26T04:55:06.208Z,59.67
2022-12-26T04:55:39.586Z,59.64
2022-12-26T04:56:13.415Z,59.53
2022-12-26T04:56:46.888Z,58.99
2022-12-26T04:57:20.528Z,58.74
2022-12-26T04:57:54.307Z,58.50
2022-12-26T04:58:27.785Z,58.92
2022-12-26T04:59:01.241Z,59.31
2022-12-26T04:59:34.855Z,60.15
2022-12-26T05:00:09.112Z,60.77
2022-12-26T05:00:42.513Z,61.40
2022-12-26T05:01:34.746Z,62.54
2022-12-26T05:02:27.878Z,63.24
2022-12-26T05:03:20.135Z,64.00
2022-12-26T05:04:12.568Z,64.08
2022-12-26T05:05:04.365Z,63.41
2022-12-26T05:06:06.431Z,63.16
2022-12-26T05:06:58.327Z,62.06
2022-12-26T05:07:53.784Z,61.50
2022-12-26T05:08:56.822Z,61.17
2022-12-26T05:09:36.567Z,60.56
2022-12-26T05:10:17.179Z,60.03
2022-12-26T05:10:50.524Z,59.99
2022-12-26T05:11:24.719Z,59.78
2022-12-26T05:11:58.292Z,59.75
2022-12-26T05:12:31.586Z,59.69
2022-12-26T05:13:05.034Z,59.48
2022-12-26T05:13:38.907Z,59.22
2022-12-26T05:14:12.261Z,58.87
2022-12-26T05:14:45.832Z,58.90
2022-12-26T05:15:19.457Z,59.11
2022-12-26T05:16:11.730Z,59.74
2022-12-26T05:17:03.860Z,60.45
2022-12-26T05:17:55.923Z,60.69
2022-12-26T05:18:47.827Z,61.60
2022-12-26T05:19:39.868Z,62.76
2022-12-26T05:20:32.457Z,64.26
2022-12-26T05:21:29.128Z,64.57
2022-12-26T05:22:23.617Z,64.05
2022-12-26T05:23:18.816Z,63.08
2022-12-26T05:24:10.918Z,62.57
2022-12-26T05:25:21.600Z,61.89
2022-12-26T05:26:14.213Z,62.07
2022-12-26T05:27:06.467Z,61.29
2022-12-26T05:28:02.466Z,60.96
2022-12-26T05:28:42.108Z,60.57
2022-12-26T05:29:15.433Z,60.71
2022-12-26T05:29:48.852Z,60.70
2022-12-26T05:30:23.081Z,60.69
2022-12-26T05:30:57.017Z,60.69
2022-12-26T05:31:35.560Z,60.61
2022-12-26T05:32:10.285Z,60.77
2022-12-26T05:33:02.434Z,60.81
2022-12-26T05:33:54.373Z,61.02
2022-12-26T05:34:27.668Z,60.78
2022-12-26T05:35:00.987Z,60.54
2022-12-26T05:35:35.705Z,60.48
2022-12-26T05:36:10.588Z,60.46
2022-12-26T05:36:56.881Z,60.43
2022-12-26T05:37:30.300Z,60.49
2022-12-26T05:38:03.741Z,60.73
2022-12-26T05:38:37.565Z,60.74
2022-12-26T05:39:11.015Z,60.91
2022-12-26T05:39:44.348Z,61.11
2022-12-26T05:40:17.760Z,61.32
2022-12-26T05:40:51.201Z,61.41
2022-12-26T05:41:24.924Z,61.38
2022-12-26T05:41:58.371Z,61.29
2022-12-26T05:42:31.709Z,61.12
2022-12-26T05:43:05.033Z,61.01
2022-12-26T05:43:38.448Z,60.95
2022-12-26T05:44:12.457Z,60.87
2022-12-26T05:44:45.787Z,60.77
2022-12-26T05:45:20.693Z,60.69
2022-12-26T05:45:54.012Z,60.61
2022-12-26T05:46:27.497Z,60.56
2022-12-26T05:47:00.859Z,60.52
2022-12-26T05:47:34.193Z,60.46
2022-12-26T05:48:07.395Z,60.51
2022-12-26T05:48:40.857Z,60.68
2022-12-26T05:49:14.456Z,60.89
2022-12-26T05:49:47.928Z,61.06
2022-12-26T05:50:21.233Z,61.15
2022-12-26T05:51:02.757Z,61.09
2022-12-26T05:51:36.421Z,61.17
2022-12-26T05:52:09.919Z,61.28
2022-12-26T05:52:43.344Z,61.41
2022-12-26T05:53:16.635Z,61.52
2022-12-26T05:53:51.050Z,61.64
2022-12-26T05:54:24.427Z,61.75
2022-12-26T05:54:57.692Z,61.86
2022-12-26T05:55:30.958Z,61.99
2022-12-26T05:56:14.950Z,62.12
2022-12-26T05:56:49.583Z,62.28
2022-12-26T05:57:23.124Z,62.29
2022-12-26T05:57:56.990Z,62.20
2022-12-26T05:58:30.462Z,62.11
2022-12-26T05:59:03.800Z,62.13
2022-12-26T05:59:37.435Z,62.15
2022-12-26T06:00:11.892Z,62.26
2022-12-26T06:00:45.488Z,62.39
2022-12-26T06:01:21.064Z,62.54
2022-12-26T06:01:54.748Z,62.75
2022-12-26T06:02:30.825Z,62.88
2022-12-26T06:03:04.505Z,63.01
2022-12-26T06:03:39.260Z,62.97
2022-12-26T06:04:12.721Z,62.98
2022-12-26T06:04:46.520Z,62.61
2022-12-26T06:05:20.187Z,62.24
2022-12-26T06:05:56.692Z,61.80
2022-12-26T06:06:30.328Z,61.64
2022-12-26T06:07:04.211Z,61.64
2022-12-26T06:07:37.798Z,61.44
2022-12-26T06:08:11.474Z,61.13
2022-12-26T06:08:48.674Z,60.80
2022-12-26T06:09:25.274Z,60.57
2022-12-26T06:09:59.315Z,60.33
2022-12-26T06:10:33.024Z,60.16
2022-12-26T06:11:13.503Z,59.97
2022-12-26T06:11:49.103Z,59.85
2022-12-26T06:12:22.897Z,59.73
2022-12-26T06:12:57.323Z,59.36
2022-12-26T06:13:30.700Z,59.01
2022-12-26T06:14:05.280Z,58.66
2022-12-26T06:14:38.911Z,58.57
2022-12-26T06:15:13.165Z,58.96
2022-12-26T06:15:46.654Z,59.36
2022-12-26T06:16:20.610Z,60.06
2022-12-26T06:16:54.058Z,60.73
2022-12-26T06:17:27.526Z,61.46
2022-12-26T06:18:01.100Z,62.18
2022-12-26T06:18:35.131Z,62.86
2022-12-26T06:19:08.837Z,63.58
2022-12-26T06:19:46.727Z,64.02
2022-12-26T06:20:20.583Z,63.88
2022-12-26T06:20:54.082Z,63.62
2022-12-26T06:21:27.652Z,63.33
2022-12-26T06:22:01.109Z,62.87
2022-12-26T06:22:34.452Z,62.44
2022-12-26T06:23:07.854Z,62.02
2022-12-26T06:23:41.789Z,61.60
2022-12-26T06:24:15.150Z,61.43
2022-12-26T06:24:48.753Z,61.27
2022-12-26T06:25:22.067Z,61.23
2022-12-26T06:25:56.884Z,61.32
2022-12-26T06:26:30.381Z,61.36
2022-12-26T06:27:04.015Z,61.46
2022-12-26T06:27:37.375Z,61.64
2022-12-26T06:28:10.754Z,61.82
2022-12-26T06:28:44.601Z,61.85
2022-12-26T06:29:18.466Z,61.74
2022-12-26T06:29:52.414Z,61.72
2022-12-26T06:30:26.316Z,61.66
2022-12-26T06:31:08.614Z,61.73
2022-12-26T06:31:42.387Z,61.78
2022-12-26T06:32:15.864Z,61.72
2022-12-26T06:32:49.182Z,61.65
2022-12-26T06:33:22.795Z,61.33
2022-12-26T06:34:02.293Z,61.03
2022-12-26T06:34:35.579Z,60.93
2022-12-26T06:35:09.090Z,60.66
2022-12-26T06:35:42.598Z,60.55
2022-12-26T06:36:20.141Z,60.29
2022-12-26T06:36:55.697Z,60.29
2022-12-26T06:37:29.185Z,60.53
2022-12-26T06:38:02.730Z,60.78
2022-12-26T06:38:36.545Z,60.83
2022-12-26T06:39:09.992Z,60.96
2022-12-26T06:39:43.400Z,60.93
2022-12-26T06:40:16.846Z,60.80
2022-12-26T06:40:50.133Z,60.65
2022-12-26T06:41:25.220Z,60.47
2022-12-26T06:41:58.754Z,60.37
2022-12-26T06:42:32.161Z,60.31
2022-12-26T06:43:05.735Z,60.13
2022-12-26T06:43:39.313Z,59.96
2022-12-26T06:44:17.897Z,59.98
2022-12-26T06:44:52.439Z,60.08
2022-12-26T06:45:25.966Z,59.62
2022-12-26T06:46:01.282Z,59.28
2022-12-26T06:46:34.767Z,58.63
2022-12-26T06:47:08.182Z,58.26
2022-12-26T06:47:41.598Z,58.37
2022-12-26T06:48:15.378Z,58.80
2022-12-26T06:48:49.138Z,59.58
2022-12-26T06:49:32.470Z,60.47
2022-12-26T06:50:07.490Z,61.25
2022-12-26T06:50:41.004Z,62.21
2022-12-26T06:51:17.522Z,63.05
2022-12-26T06:51:50.938Z,64.03
2022-12-26T06:52:24.414Z,64.43
2022-12-26T06:52:57.875Z,64.35
2022-12-26T06:53:31.385Z,64.20
2022-12-26T06:54:05.253Z,64.11
2022-12-26T06:54:38.803Z,63.78
2022-12-26T06:55:12.251Z,63.52
2022-12-26T06:55:45.603Z,63.17
2022-12-26T06:56:25.017Z,62.59
2022-12-26T06:56:58.474Z,62.23
2022-12-26T06:57:32.014Z,62.20
2022-12-26T06:58:05.368Z,62.14
2022-12-26T06:58:38.963Z,62.04
2022-12-26T06:59:12.549Z,61.85
2022-12-26T06:59:46.174Z,61.65
2022-12-26T07:00:20.020Z,61.35
2022-12-26T07:00:53.370Z,61.21
2022-12-26T07:01:29.797Z,61.15
2022-12-26T07:02:03.434Z,61.23
2022-12-26T07:02:37.322Z,61.11
2022-12-26T07:03:12.043Z,61.15
2022-12-26T07:03:51.155Z,61.10
2022-12-26T07:04:25.353Z,61.13
2022-12-26T07:04:58.737Z,61.13
2022-12-26T07:05:32.156Z,61.16
2022-12-26T07:06:17.167Z,61.27
2022-12-26T07:06:50.986Z,61.45
2022-12-26T07:07:24.474Z,61.15
2022-12-26T07:07:57.931Z,60.81
2022-12-26T07:08:31.517Z,60.68
2022-12-26T07:09:17.327Z,60.52
2022-12-26T07:09:50.990Z,60.52
2022-12-26T07:10:24.398Z,60.42
2022-12-26T07:10:58.219Z,60.51
2022-12-26T07:11:34.736Z,60.57
2022-12-26T07:12:08.334Z,60.60
2022-12-26T07:12:41.851Z,60.69
2022-12-26T07:13:15.300Z,60.71
2022-12-26T07:13:48.927Z,60.80
2022-12-26T07:14:22.234Z,60.89
2022-12-26T07:15:01.348Z,60.97
2022-12-26T07:15:35.552Z,61.03
2022-12-26T07:16:09.180Z,61.07
2022-12-26T07:16:44.671Z,61.15
2022-12-26T07:17:18.182Z,61.22
2022-12-26T07:17:53.125Z,61.29
2022-12-26T07:18:26.791Z,61.37
2022-12-26T07:19:00.197Z,61.11
2022-12-26T07:19:33.585Z,60.85
2022-12-26T07:20:08.763Z,60.58
2022-12-26T07:20:42.216Z,60.45
2022-12-26T07:21:17.055Z,60.40
2022-12-26T07:21:51.205Z,60.36
2022-12-26T07:22:24.640Z,60.34
2022-12-26T07:22:58.157Z,60.46
2022-12-26T07:23:32.224Z,60.51
2022-12-26T07:24:06.404Z,60.47
2022-12-26T07:24:39.861Z,60.20
2022-12-26T07:25:13.251Z,59.88
2022-12-26T07:25:49.139Z,59.77
2022-12-26T07:26:24.130Z,59.68
2022-12-26T07:26:57.819Z,59.79
2022-12-26T07:27:31.353Z,59.80
2022-12-26T07:28:05.341Z,59.98
2022-12-26T07:28:39.034Z,60.19
2022-12-26T07:29:13.496Z,60.49
2022-12-26T07:29:47.837Z,60.94
2022-12-26T07:30:21.560Z,61.45
2022-12-26T07:30:55.879Z,61.92
2022-12-26T07:31:29.529Z,62.22
2022-12-26T07:32:03.100Z,62.64
2022-12-26T07:32:36.673Z,63.33
2022-12-26T07:33:10.243Z,63.76
2022-12-26T07:33:43.933Z,63.91
2022-12-26T07:34:17.250Z,64.22
2022-12-26T07:34:50.761Z,64.58
2022-12-26T07:35:24.199Z,64.68
2022-12-26T07:36:05.890Z,64.80
2022-12-26T07:36:40.312Z,65.04
2022-12-26T07:37:13.917Z,65.22
2022-12-26T07:37:47.425Z,65.36
2022-12-26T07:38:20.966Z,65.49
2022-12-26T07:38:54.621Z,65.68
2022-12-26T07:39:27.992Z,65.89
2022-12-26T07:40:01.473Z,66.14
2022-12-26T07:40:34.918Z,66.37
2022-12-26T07:41:47.103Z,66.42
2022-12-26T07:42:21.956Z,66.18
2022-12-26T07:42:55.304Z,66.67
2022-12-26T07:43:28.864Z,66.98
2022-12-26T07:44:02.356Z,67.15
2022-12-26T07:44:35.743Z,67.16
2022-12-26T07:45:09.737Z,67.23
2022-12-26T07:45:45.792Z,67.34
2022-12-26T07:46:20.259Z,67.45
2022-12-26T07:46:53.859Z,67.53
2022-12-26T07:47:27.166Z,67.60
2022-12-26T07:48:00.717Z,67.71
2022-12-26T07:48:34.242Z,67.85
2022-12-26T07:49:08.470Z,67.99
2022-12-26T07:49:42.163Z,68.15
2022-12-26T07:50:15.705Z,68.30
2022-12-26T07:50:51.190Z,68.48
2022-12-26T07:51:29.090Z,68.62
2022-12-26T07:52:02.756Z,68.91
2022-12-26T07:52:36.709Z,69.17
2022-12-26T07:53:10.388Z,69.41
2022-12-26T07:53:43.966Z,69.68
2022-12-26T07:54:18.254Z,69.91
2022-12-26T07:54:51.744Z,70.02
2022-12-26T07:55:25.413Z,70.11
2022-12-26T07:56:02.498Z,70.30
2022-12-26T07:56:36.415Z,70.26
2022-12-26T07:57:46.224Z,70.48
2022-12-26T07:58:03.386Z,70.31
2022-12-26T07:58:36.909Z,70.70
2022-12-26T07:59:15.842Z,70.71
2022-12-26T07:59:53.233Z,70.76
2022-12-26T08:00:27.334Z,70.81
2022-12-26T08:01:02.444Z,70.91
2022-12-26T08:01:36.206Z,70.83
2022-12-26T08:02:11.405Z,70.87
2022-12-26T08:02:45.910Z,70.82
2022-12-26T08:03:19.669Z,70.74
2022-12-26T08:03:53.725Z,70.76
2022-12-26T08:04:27.940Z,70.79
2022-12-26T08:05:01.514Z,70.82
2022-12-26T08:05:35.448Z,70.84
2022-12-26T08:06:12.146Z,70.81
2022-12-26T08:06:47.387Z,70.75
2022-12-26T08:07:20.918Z,70.84
2022-12-26T08:07:54.596Z,70.93
2022-12-26T08:08:28.479Z,70.97
2022-12-26T08:09:01.978Z,71.04
2022-12-26T08:09:35.769Z,71.07
2022-12-26T08:10:10.031Z,71.17
2022-12-26T08:10:43.846Z,71.22
2022-12-26T08:11:20.790Z,71.20
2022-12-26T08:11:54.295Z,71.39
2022-12-26T08:12:27.730Z,71.44
2022-12-26T08:13:01.227Z,71.55
2022-12-26T08:13:35.841Z,71.60
2022-12-26T08:14:11.775Z,71.55
2022-12-26T08:14:45.531Z,71.55
2022-12-26T08:15:19.037Z,71.60
2022-12-26T08:15:52.865Z,71.63
2022-12-26T08:16:26.588Z,71.60
2022-12-26T08:17:00.087Z,71.50
2022-12-26T08:17:34.343Z,71.38
2022-12-26T08:18:08.321Z,71.27
2022-12-26T08:18:42.496Z,71.28
2022-12-26T08:19:16.423Z,71.32
2022-12-26T08:19:50.180Z,71.31
2022-12-26T08:20:23.785Z,71.33
2022-12-26T08:20:59.065Z,71.39
2022-12-26T08:21:32.761Z,71.37
2022-12-26T08:22:06.556Z,71.40
2022-12-26T08:22:40.147Z,71.39
2022-12-26T08:23:13.745Z,71.41
2022-12-26T08:23:48.701Z,71.46
2022-12-26T08:24:22.355Z,71.46
2022-12-26T08:24:55.868Z,71.50
2022-12-26T08:25:29.692Z,71.50
2022-12-26T08:26:13.732Z,71.57
2022-12-26T08:26:47.399Z,71.47
2022-12-26T08:27:20.925Z,71.60
2022-12-26T08:27:54.587Z,71.67
2022-12-26T08:28:28.219Z,71.61
2022-12-26T08:29:01.793Z,71.62
2022-12-26T08:29:35.335Z,71.61
2022-12-26T08:30:09.915Z,71.69
2022-12-26T08:30:44.510Z,71.70
2022-12-26T08:31:20.040Z,71.74
2022-12-26T08:31:54.075Z,71.76
2022-12-26T08:32:27.812Z,71.80
2022-12-26T08:33:01.619Z,71.94
2022-12-26T08:33:36.246Z,72.00
2022-12-26T08:34:10.379Z,72.06
2022-12-26T08:34:44.357Z,72.11
2022-12-26T08:35:18.362Z,72.19
2022-12-26T08:35:51.880Z,72.31
2022-12-26T08:36:25.851Z,72.51
2022-12-26T08:36:59.695Z,72.56
2022-12-26T08:37:34.572Z,71.45
2022-12-26T08:38:08.730Z,70.86
2022-12-26T08:38:42.627Z,69.53
2022-12-26T08:39:16.338Z,68.23